Time;durP1;ratioP1;P1;durP2;ratioP2;P2;SDS_P1;SDS_P2;PMS_P1;PMS_P2;Temp;Humidity;BMP_temperature;BMP_pressure;BME280_temperature;BME280_humidity;BME280_pressure;Samples;Min_cycle;Max_cycle;Signal;HPM_P1;HPM_P2
2023/04/22 00:03:14;;;;;;;9.07;5.05;;;;;;;12.70;50.72;99752.25;10153128;29;20109;-79
2023/04/22 00:08:17;;;;;;;8.18;4.63;;;;;;;12.72;51.13;99755.63;10162909;29;20040;-81
2023/04/22 00:13:20;;;;;;;8.30;4.60;;;;;;;12.72;50.92;99757.47;10159580;29;20492;-79
2023/04/22 00:18:24;;;;;;;8.77;4.88;;;;;;;12.82;50.73;99755.56;10160519;29;20571;-79
2023/04/22 00:23:27;;;;;;;6.55;4.65;;;;;;;12.85;50.39;99757.09;10162270;29;20053;-80
2023/04/22 00:28:30;;;;;;;10.68;5.03;;;;;;;12.72;50.81;99749.41;10190020;29;20033;-75
2023/04/22 00:33:35;;;;;;;8.70;5.43;;;;;;;12.77;51.10;99760.56;10178206;29;20041;-77
2023/04/22 00:38:38;;;;;;;11.45;4.75;;;;;;;12.79;50.71;99754.03;10182307;29;20055;-78
2023/04/22 00:43:41;;;;;;;6.95;4.40;;;;;;;12.79;50.78;99753.19;10149516;29;20060;-79
2023/04/22 00:48:46;;;;;;;13.10;5.35;;;;;;;12.74;50.90;99755.47;10168784;29;20388;-79
2023/04/22 00:53:49;;;;;;;10.05;5.50;;;;;;;12.68;51.12;99748.88;10165805;29;20060;-80
2023/04/22 00:58:53;;;;;;;7.50;5.28;;;;;;;12.74;50.99;99744.72;10172064;29;20055;-78
2023/04/22 01:03:59;;;;;;;11.43;5.63;;;;;;;12.76;50.63;99750.78;10167320;29;20044;-78
2023/04/22 01:09:02;;;;;;;9.18;5.50;;;;;;;12.69;50.83;99744.31;10149610;29;20188;-79
2023/04/22 01:14:05;;;;;;;8.88;5.25;;;;;;;12.65;50.68;99737.56;10159953;29;20044;-79
2023/04/22 01:19:11;;;;;;;7.18;5.22;;;;;;;12.51;51.01;99730.84;10160681;29;20052;-78
2023/04/22 01:24:15;;;;;;;16.38;5.60;;;;;;;12.30;51.92;99731.13;10168618;29;20131;-77
2023/04/22 01:29:18;;;;;;;11.07;5.60;;;;;;;12.17;52.18;99724.22;10162417;29;20132;-78
2023/04/22 01:34:21;;;;;;;8.05;5.18;;;;;;;12.14;52.39;99731.75;10166583;29;20060;-78
2023/04/22 01:39:26;;;;;;;8.52;5.07;;;;;;;12.07;52.63;99733.34;10164327;29;20073;-79
2023/04/22 01:44:29;;;;;;;13.48;5.53;;;;;;;12.05;52.77;99728.13;10161178;29;20045;-76
2023/04/22 01:49:32;;;;;;;7.28;5.20;;;;;;;12.01;52.88;99728.56;10191060;29;20408;-76
2023/04/22 01:54:36;;;;;;;8.75;5.20;;;;;;;11.96;52.99;99731.72;10151207;29;20087;-79
2023/04/22 01:59:39;;;;;;;10.13;5.45;;;;;;;11.85;53.26;99729.22;10166460;29;20041;-79
2023/04/22 02:04:43;;;;;;;10.57;5.90;;;;;;;11.82;53.46;99730.38;10151210;29;20415;-79
2023/04/22 02:09:47;;;;;;;8.73;5.00;;;;;;;11.81;53.59;99722.41;10169934;29;20060;-79
2023/04/22 02:14:53;;;;;;;11.48;5.78;;;;;;;11.80;53.75;99726.13;10163158;29;20136;-79
2023/04/22 02:19:56;;;;;;;11.75;5.80;;;;;;;11.79;53.74;99727.09;10150086;29;20257;-78
2023/04/22 02:25:00;;;;;;;8.18;5.13;;;;;;;11.65;54.12;99718.50;10162820;29;20072;-78
2023/04/22 02:30:03;;;;;;;7.85;5.13;;;;;;;11.63;54.34;99714.31;10149385;29;20048;-78
2023/04/22 02:35:07;;;;;;;9.27;5.00;;;;;;;11.65;54.60;99717.66;10154149;29;20044;-79
2023/04/22 02:40:12;;;;;;;6.35;5.68;;;;;;;11.69;54.52;99714.53;10157320;29;20103;-79
2023/04/22 02:45:15;;;;;;;10.80;5.72;;;;;;;11.70;54.98;99716.22;10156393;29;20119;-78
2023/04/22 02:50:19;;;;;;;9.75;5.32;;;;;;;11.75;54.98;99721.19;10149056;29;20036;-78
2023/04/22 02:55:24;;;;;;;6.60;5.45;;;;;;;11.83;54.81;99710.53;10153534;29;20056;-78
2023/04/22 03:00:28;;;;;;;10.40;5.43;;;;;;;11.79;54.92;99717.19;10149781;29;20052;-79
2023/04/22 03:05:31;;;;;;;9.55;5.70;;;;;;;11.86;54.93;99709.38;10155642;29;20063;-78
2023/04/22 03:10:36;;;;;;;10.90;6.00;;;;;;;11.81;55.07;99711.66;10158841;29;20047;-78
2023/04/22 03:15:40;;;;;;;12.05;6.03;;;;;;;11.83;55.13;99707.81;10168627;29;20048;-79
2023/04/22 03:20:43;;;;;;;11.70;6.30;;;;;;;11.85;55.05;99708.53;10175613;29;20052;-79
2023/04/22 03:25:47;;;;;;;9.57;5.88;;;;;;;11.90;55.00;99702.69;10160659;29;20460;-78
2023/04/22 03:30:50;;;;;;;12.88;5.82;;;;;;;11.91;54.91;99705.25;10174090;29;20040;-78
2023/04/22 03:35:54;;;;;;;8.93;5.65;;;;;;;11.85;54.96;99702.31;10164667;29;20104;-77
2023/04/22 03:41:00;;;;;;;8.10;6.07;;;;;;;11.83;55.29;99697.06;10160840;29;20037;-78
2023/04/22 03:46:16;;;;;;;9.95;5.97;;;;;;;11.81;55.54;99700.91;10176692;29;20052;-78
2023/04/22 03:51:28;;;;;;;8.20;6.07;;;;;;;11.78;55.63;99693.97;10162478;29;20103;-79
2023/04/22 03:56:35;;;;;;;9.93;5.95;;;;;;;11.76;55.82;99701.34;10191167;29;20055;-76
2023/04/22 04:01:38;;;;;;;8.35;5.93;;;;;;;11.65;56.06;99691.59;10198312;29;20080;-76
2023/04/22 04:06:43;;;;;;;8.65;5.97;;;;;;;11.72;56.00;99703.47;10178693;29;20048;-77
2023/04/22 04:11:47;;;;;;;11.48;6.15;;;;;;;11.71;56.15;99692.84;10163045;29;20511;-79
2023/04/22 04:16:50;;;;;;;7.05;5.63;;;;;;;11.62;56.42;99693.75;10170041;29;20072;-80
2023/04/22 04:22:01;;;;;;;7.00;6.20;;;;;;;11.69;56.36;99702.94;10168623;29;20052;-78
2023/04/22 04:27:10;;;;;;;10.88;6.43;;;;;;;11.69;56.19;99690.34;10177318;29;20045;-80
2023/04/22 04:32:21;;;;;;;;;;;;;;;11.72;56.40;99692.72;10173437;29;20045;-78
2023/04/22 04:37:25;;;;;;;8.15;5.32;;;;;;;11.77;56.40;99686.06;10149540;29;19975;-79
2023/04/22 04:42:41;;;;;;;7.38;6.03;;;;;;;11.80;56.26;99686.59;10163150;29;20128;-79
2023/04/22 04:47:51;;;;;;;10.20;6.10;;;;;;;11.85;56.28;99680.78;10149246;29;20078;-78
2023/04/22 04:52:58;;;;;;;10.32;6.53;;;;;;;11.83;56.54;99677.38;10168948;29;20047;-79
2023/04/22 04:58:09;;;;;;;8.73;5.90;;;;;;;11.85;56.65;99667.31;10164708;29;20087;-79
2023/04/22 05:03:12;;;;;;;6.95;5.88;;;;;;;11.90;56.54;99681.16;10153142;29;20048;-78
2023/04/22 05:08:15;;;;;;;10.52;5.63;;;;;;;12.02;56.52;99681.81;10179503;29;20153;-77
2023/04/22 05:13:23;;;;;;;7.90;5.55;;;;;;;12.08;56.44;99689.28;10173328;29;20647;-78
2023/04/22 05:18:26;;;;;;;10.18;5.95;;;;;;;12.10;56.75;99690.00;10154787;29;20107;-78
2023/04/22 05:23:32;;;;;;;7.90;5.65;;;;;;;12.16;56.47;99692.06;10158961;29;20388;-77
2023/04/22 05:28:37;;;;;;;8.57;5.60;;;;;;;12.26;56.42;99697.38;10147199;29;20085;-79
2023/04/22 05:33:40;;;;;;;7.95;5.82;;;;;;;12.28;56.28;99690.88;10153507;29;20449;-79
2023/04/22 05:38:44;;;;;;;11.35;5.72;;;;;;;12.33;56.52;99693.13;10164540;29;20049;-78
2023/04/22 05:43:48;;;;;;;6.78;5.97;;;;;;;12.53;56.04;99697.38;10157623;29;20531;-79
2023/04/22 05:48:54;;;;;;;8.27;5.70;;;;;;;12.66;55.90;99693.44;10165650;29;20040;-78
2023/04/22 05:54:17;;;;;;;9.85;6.15;;;;;;;12.88;55.84;99700.19;10159114;29;20057;-79
2023/04/22 05:59:22;;;;;;;9.60;5.90;;;;;;;13.08;54.95;99701.69;10158915;29;20043;-78
2023/04/22 06:04:25;;;;;;;8.32;5.65;;;;;;;13.21;54.71;99696.72;10164289;29;20599;-78
2023/04/22 06:09:28;;;;;;;19.35;6.15;;;;;;;13.33;54.99;99691.06;10150285;29;20060;-77
2023/04/22 06:14:32;;;;;;;7.63;5.90;;;;;;;13.41;54.99;99701.94;10156759;29;20460;-78
2023/04/22 06:19:35;;;;;;;8.45;5.95;;;;;;;13.79;54.49;99679.03;10174228;29;20032;-77
2023/04/22 06:24:39;;;;;;;6.75;5.47;;;;;;;14.10;54.25;99689.28;10177620;29;20032;-77
2023/04/22 06:29:43;;;;;;;14.07;6.82;;;;;;;14.06;53.53;99687.91;10164702;29;20040;-78
2023/04/22 06:34:48;;;;;;;7.53;5.18;;;;;;;14.19;53.49;99677.50;10116939;29;20049;-78
2023/04/22 06:39:51;;;;;;;7.47;5.50;;;;;;;14.65;52.99;99666.28;10120396;29;20060;-78
2023/04/22 06:45:18;;;;;;;8.18;5.35;;;;;;;14.77;52.22;99646.84;10078615;29;20774;-78
2023/04/22 06:50:31;;;;;;;10.32;5.82;;;;;;;14.74;52.33;99659.88;10122621;29;20419;-78
2023/04/22 06:55:35;;;;;;;7.22;4.90;;;;;;;14.93;51.84;99681.16;10149639;29;20159;-79
2023/04/22 07:00:39;;;;;;;6.57;4.55;;;;;;;15.06;51.34;99667.13;10167075;29;20052;-77
2023/04/22 07:05:42;;;;;;;9.70;4.60;;;;;;;14.93;51.39;99669.50;10140098;29;20088;-79
2023/04/22 07:10:45;;;;;;;9.63;5.10;;;;;;;15.14;51.29;99661.69;10118042;29;20646;-79
2023/04/22 07:16:08;;;;;;;8.75;5.15;;;;;;;15.83;50.57;99667.44;10144457;29;20060;-78
2023/04/22 07:21:11;;;;;;;8.43;5.45;;;;;;;16.10;49.43;99663.41;10141091;29;20056;-80
2023/04/22 07:26:14;;;;;;;7.50;5.18;;;;;;;16.32;49.07;99660.97;10107539;29;20409;-78
2023/04/22 07:31:18;;;;;;;8.82;5.68;;;;;;;16.90;48.60;99656.78;10111356;29;20055;-78
2023/04/22 07:36:21;;;;;;;6.90;5.03;;;;;;;16.81;47.90;99657.84;10114452;29;20052;-76
2023/04/22 07:41:24;;;;;;;6.28;5.15;;;;;;;17.10;47.45;99657.09;10106523;29;20052;-78
2023/04/22 07:46:29;;;;;;;7.35;4.45;;;;;;;17.44;46.76;99653.03;10114704;29;20048;-76
2023/04/22 07:51:31;;;;;;;8.95;4.50;;;;;;;17.53;46.92;99667.38;10114249;29;20176;-76
2023/04/22 07:56:34;;;;;;;9.60;4.05;;;;;;;17.99;45.90;99657.16;10105772;29;20055;-77
2023/04/22 08:01:39;;;;;;;6.28;4.68;;;;;;;17.90;45.70;99659.09;10116415;29;20056;-77
2023/04/22 08:06:42;;;;;;;8.30;4.38;;;;;;;18.07;45.96;99656.19;10121500;29;20056;-78
2023/04/22 08:11:45;;;;;;;7.25;4.53;;;;;;;18.04;45.43;99643.81;10111673;29;20139;-77
2023/04/22 08:16:51;;;;;;;6.25;4.72;;;;;;;18.36;45.93;99634.34;10123507;29;21529;-78
2023/04/22 08:21:54;;;;;;;7.65;4.63;;;;;;;18.63;45.47;99633.78;10112432;29;20056;-77
2023/04/22 08:26:57;;;;;;;5.03;4.03;;;;;;;18.91;44.65;99631.97;10109086;29;20048;-77
2023/04/22 08:32:01;;;;;;;4.80;4.30;;;;;;;19.23;44.31;99635.97;10115415;29;20048;-78
2023/04/22 08:37:04;;;;;;;5.28;4.13;;;;;;;19.45;43.84;99635.91;10112454;29;20044;-77
2023/04/22 08:42:07;;;;;;;5.20;3.88;;;;;;;19.91;43.35;99627.13;10113811;29;20598;-77
2023/04/22 08:47:14;;;;;;;5.40;3.60;;;;;;;20.08;42.13;99627.63;10118878;28;20052;-77
2023/04/22 08:52:17;;;;;;;7.70;3.50;;;;;;;20.32;41.88;99624.38;10122756;29;20370;-77
2023/04/22 08:57:20;;;;;;;6.53;3.40;;;;;;;20.21;41.70;99621.34;10126834;29;20198;-77
2023/04/22 09:02:25;;;;;;;3.72;3.42;;;;;;;20.61;41.87;99621.47;10121077;29;20419;-77
2023/04/22 09:07:30;;;;;;;4.38;3.97;;;;;;;21.00;40.63;99628.81;10116306;29;20684;-77
2023/04/22 09:12:33;;;;;;;2.90;2.30;;;;;;;21.19;38.25;99605.28;10112883;29;20113;-76
2023/04/22 09:17:38;;;;;;;3.88;3.03;;;;;;;21.77;40.05;99610.81;10114846;29;20060;-78
2023/04/22 09:22:43;;;;;;;4.07;2.95;;;;;;;21.58;38.66;99606.25;10110898;29;20141;-77
2023/04/22 09:27:50;;;;;;;2.10;1.90;;;;;;;21.87;36.37;99602.19;10116561;29;20120;-78
2023/04/22 09:32:56;;;;;;;3.95;2.38;;;;;;;21.62;37.20;99591.09;10115743;29;20097;-77
2023/04/22 09:38:01;;;;;;;2.25;2.15;;;;;;;21.74;36.92;99585.81;10111998;29;20061;-78
2023/04/22 09:43:06;;;;;;;3.47;2.67;;;;;;;21.74;37.26;99597.56;10114293;29;20183;-77
2023/04/22 09:48:12;;;;;;;3.90;2.70;;;;;;;22.09;37.64;99580.81;10111545;29;20657;-77
2023/04/22 09:53:16;;;;;;;3.50;2.53;;;;;;;21.61;37.03;99575.75;10112042;29;20411;-78
2023/04/22 09:58:22;;;;;;;2.72;2.53;;;;;;;22.43;36.98;99574.09;10113878;29;20428;-77
2023/04/22 10:03:26;;;;;;;3.13;2.80;;;;;;;22.83;35.90;99562.00;10111469;29;20051;-78
2023/04/22 10:08:32;;;;;;;2.40;2.20;;;;;;;22.01;37.17;99556.47;10118969;29;20087;-78
2023/04/22 10:13:35;;;;;;;4.28;2.40;;;;;;;22.69;36.52;99558.53;10105395;29;20048;-78
2023/04/22 10:18:40;;;;;;;3.97;2.90;;;;;;;22.52;36.11;99558.25;10111898;29;20169;-76
2023/04/22 10:23:46;;;;;;;2.90;2.58;;;;;;;22.84;36.09;99531.63;10110103;29;20512;-77
2023/04/22 10:28:50;;;;;;;6.53;2.58;;;;;;;23.30;36.09;99541.28;10105160;29;20053;-78
2023/04/22 10:34:09;;;;;;;3.45;2.85;;;;;;;23.11;35.59;99524.00;10106461;29;20054;-77
2023/04/22 10:39:16;;;;;;;2.20;2.00;;;;;;;22.85;35.23;99530.59;10111042;29;20041;-78
2023/04/22 10:44:20;;;;;;;2.00;1.85;;;;;;;22.03;35.64;99527.84;10098016;29;20102;-78
2023/04/22 10:49:29;;;;;;;4.00;2.00;;;;;;;22.34;35.66;99539.84;10109167;29;20052;-77
2023/04/22 10:54:57;;;;;;;1.85;1.73;;;;;;;21.78;35.26;99514.13;10111440;29;20089;-78
2023/04/22 11:00:00;;;;;;;7.03;2.00;;;;;;;22.59;35.51;99503.47;10106947;29;20048;-78
2023/04/22 11:05:22;;;;;;;2.47;2.08;;;;;;;23.70;34.20;99490.66;10108501;29;20045;-77
2023/04/22 11:10:33;;;;;;;3.65;2.10;;;;;;;23.69;32.80;99510.88;10095129;29;20049;-78
2023/04/22 11:15:39;;;;;;;3.22;1.80;;;;;;;23.91;33.37;99497.53;10111754;29;20628;-77
2023/04/22 11:20:43;;;;;;;3.47;2.30;;;;;;;23.05;34.28;99489.31;10107397;29;20139;-77
2023/04/22 11:25:46;;;;;;;3.75;2.00;;;;;;;23.85;33.47;99489.16;10118029;29;20135;-78
2023/04/22 11:30:50;;;;;;;5.07;1.70;;;;;;;24.04;33.08;99481.69;10112698;29;20070;-78
2023/04/22 11:35:56;;;;;;;4.72;1.95;;;;;;;24.48;32.48;99463.06;10112264;29;20279;-78
2023/04/22 11:40:59;;;;;;;1.95;1.75;;;;;;;23.77;33.43;99470.28;10122519;29;20114;-78
2023/04/22 11:46:03;;;;;;;1.80;1.70;;;;;;;23.77;33.47;99458.50;10123060;29;20094;-78
2023/04/22 11:51:10;;;;;;;2.50;1.70;;;;;;;24.22;32.55;99464.34;10117156;29;20044;-75
2023/04/22 11:56:13;;;;;;;2.75;1.90;;;;;;;25.68;31.30;99485.47;10129815;29;20048;-76
2023/04/22 12:01:17;;;;;;;2.58;1.98;;;;;;;24.95;31.14;99454.78;10108582;29;20072;-77
2023/04/22 12:06:22;;;;;;;2.00;1.40;;;;;;;24.36;32.77;99462.22;10111497;29;20413;-77
2023/04/22 12:11:25;;;;;;;2.67;1.67;;;;;;;24.92;32.88;99443.47;10119114;29;20533;-76
2023/04/22 12:16:27;;;;;;;1.80;1.70;;;;;;;23.81;33.41;99443.28;10110469;29;20120;-75
2023/04/22 12:21:32;;;;;;;2.40;1.73;;;;;;;23.66;33.57;99443.66;10107317;29;20072;-76
2023/04/22 12:26:36;;;;;;;1.90;1.33;;;;;;;24.62;32.37;99433.47;10113719;29;20036;-76
2023/04/22 12:31:39;;;;;;;4.68;1.88;;;;;;;26.05;31.65;99414.38;10107782;29;20077;-76
2023/04/22 12:36:43;;;;;;;2.45;2.08;;;;;;;24.55;32.05;99427.28;10112233;29;20055;-77
2023/04/22 12:41:49;;;;;;;1.88;1.73;;;;;;;24.59;31.94;99428.47;10107482;29;20057;-77
2023/04/22 12:46:52;;;;;;;2.25;1.80;;;;;;;24.79;31.66;99419.00;10111099;29;20075;-77
2023/04/22 12:51:57;;;;;;;2.92;1.70;;;;;;;25.13;31.59;99409.88;10124407;29;20135;-77
2023/04/22 12:57:00;;;;;;;4.13;2.08;;;;;;;26.11;31.40;99397.91;10121014;29;20135;-77
2023/04/22 13:02:03;;;;;;;2.88;1.85;;;;;;;26.06;30.26;99428.94;10119407;29;20084;-77
2023/04/22 13:07:07;;;;;;;2.92;1.67;;;;;;;24.57;30.62;99402.31;10112799;29;20044;-77
2023/04/22 13:12:10;;;;;;;3.13;1.48;;;;;;;23.21;32.47;99406.53;10101911;29;20066;-77
2023/04/22 13:17:13;;;;;;;3.13;1.63;;;;;;;23.01;33.11;99408.69;10114541;29;20776;-78
2023/04/22 13:22:17;;;;;;;6.85;2.00;;;;;;;22.67;33.56;99394.53;10126127;29;20048;-76
2023/04/22 13:27:20;;;;;;;5.15;1.80;;;;;;;23.32;33.49;99382.19;10113400;29;20072;-77
2023/04/22 13:32:23;;;;;;;2.17;1.52;;;;;;;24.41;32.39;99382.78;10120421;29;20044;-77
2023/04/22 13:37:27;;;;;;;2.78;1.67;;;;;;;25.11;30.98;99384.56;10110209;29;20056;-76
2023/04/22 13:42:30;;;;;;;5.07;2.28;;;;;;;25.30;31.00;99363.22;10112228;29;20045;-77
2023/04/22 13:47:33;;;;;;;2.95;1.80;;;;;;;25.89;29.28;99362.06;10096497;29;20503;-77
2023/04/22 13:52:37;;;;;;;1.60;1.50;;;;;;;24.09;31.25;99380.34;10108557;29;20055;-76
2023/04/22 13:57:40;;;;;;;6.97;1.88;;;;;;;22.97;32.96;99359.00;10102870;29;20048;-76
2023/04/22 14:02:44;;;;;;;4.68;2.10;;;;;;;23.31;33.08;99372.28;10113695;29;20087;-77
2023/04/22 14:07:49;;;;;;;1.60;1.50;;;;;;;24.81;30.74;99371.00;10118760;29;20176;-76
2023/04/22 14:12:51;;;;;;;2.65;1.85;;;;;;;25.00;30.94;99354.38;10117287;29;20189;-76
2023/04/22 14:17:54;;;;;;;1.90;1.67;;;;;;;24.08;32.11;99356.75;10109180;29;21517;-77
2023/04/22 14:22:59;;;;;;;7.82;1.85;;;;;;;23.59;32.74;99356.06;10117257;29;20061;-77
2023/04/22 14:28:03;;;;;;;3.17;1.80;;;;;;;22.71;33.91;99343.75;10108249;29;20060;-77
2023/04/22 14:33:08;;;;;;;2.58;2.17;;;;;;;23.44;33.11;99341.94;10111461;29;20171;-77
2023/04/22 14:38:12;;;;;;;3.85;1.52;;;;;;;23.58;32.59;99346.13;10119331;29;20044;-77
2023/04/22 14:43:17;;;;;;;2.92;1.80;;;;;;;23.21;32.76;99348.19;10112579;29;20447;-76
2023/04/22 14:48:20;;;;;;;4.75;1.90;;;;;;;23.87;32.81;99344.44;10119139;29;20419;-76
2023/04/22 14:53:24;;;;;;;2.50;1.83;;;;;;;23.74;31.92;99341.06;10117702;29;20044;-78
2023/04/22 14:58:30;;;;;;;2.22;1.65;;;;;;;22.89;34.07;99347.53;10118166;29;20138;-76
2023/04/22 15:03:34;;;;;;;2.78;1.92;;;;;;;22.83;34.07;99335.59;10109787;29;21160;-77
2023/04/22 15:08:39;;;;;;;2.95;1.70;;;;;;;22.44;34.48;99337.75;10129209;29;20055;-76
2023/04/22 15:13:42;;;;;;;2.25;1.85;;;;;;;22.75;33.92;99333.19;10118053;29;20049;-78
2023/04/22 15:18:44;;;;;;;4.07;1.80;;;;;;;23.16;33.55;99316.00;10144954;29;20048;-77
2023/04/22 15:23:49;;;;;;;2.22;1.75;;;;;;;22.51;34.05;99326.72;10128356;29;20055;-79
2023/04/22 15:28:52;;;;;;;3.92;2.17;;;;;;;22.51;34.39;99323.97;10124058;29;20080;-77
2023/04/22 15:33:55;;;;;;;3.42;1.70;;;;;;;22.54;33.98;99321.66;10130536;29;20054;-76
2023/04/22 15:38:59;;;;;;;3.40;2.40;;;;;;;22.44;34.02;99310.41;10123182;29;20184;-76
2023/04/22 15:44:03;;;;;;;2.55;1.90;;;;;;;21.78;35.27;99321.97;10129241;29;20432;-77
2023/04/22 15:49:08;;;;;;;2.40;2.20;;;;;;;21.58;35.37;99322.09;10123493;29;21292;-77
2023/04/22 15:54:13;;;;;;;8.10;1.90;;;;;;;21.42;36.03;99328.97;10127915;29;20083;-77
2023/04/22 15:59:16;;;;;;;2.63;1.90;;;;;;;21.66;35.91;99322.66;10116745;29;20149;-76
2023/04/22 16:04:19;;;;;;;3.35;1.92;;;;;;;21.60;35.99;99322.72;10124761;29;21193;-77
2023/04/22 16:09:24;;;;;;;2.55;2.15;;;;;;;21.27;36.35;99331.97;10122861;29;20080;-76
2023/04/22 16:14:27;;;;;;;4.03;2.00;;;;;;;21.34;36.80;99331.94;10120999;29;20052;-76
2023/04/22 16:19:29;;;;;;;3.45;1.98;;;;;;;20.55;39.96;99344.91;10113128;29;20052;-76
2023/04/22 16:24:34;;;;;;;4.85;1.73;;;;;;;19.47;37.38;99347.84;10103667;29;20049;-76
2023/04/22 16:29:36;;;;;;;4.20;2.03;;;;;;;19.84;37.51;99340.16;10111303;29;20579;-76
2023/04/22 16:34:40;;;;;;;1.98;1.88;;;;;;;19.17;41.65;99371.88;10111458;29;20052;-77
2023/04/22 16:39:44;;;;;;;4.43;2.38;;;;;;;18.95;44.70;99396.53;10119619;29;20063;-76
2023/04/22 16:44:47;;;;;;;2.05;1.85;;;;;;;16.27;62.12;99460.13;10146123;29;20048;-77
2023/04/22 16:49:50;;;;;;;22.15;7.78;;;;;;;14.69;74.93;99446.81;10112618;29;20436;-77
2023/04/22 16:54:54;;;;;;;13.55;6.53;;;;;;;14.57;78.20;99424.75;10117059;29;20056;-78
2023/04/22 16:59:57;;;;;;;5.50;4.50;;;;;;;14.45;78.18;99433.38;10121102;29;20068;-78
2023/04/22 17:05:01;;;;;;;9.00;5.45;;;;;;;14.38;77.90;99439.47;10116158;29;20100;-78
2023/04/22 17:10:07;;;;;;;6.07;5.07;;;;;;;14.65;79.29;99437.41;10122809;29;20072;-77
2023/04/22 17:15:10;;;;;;;5.90;4.80;;;;;;;14.53;77.57;99427.97;10116793;29;20052;-78
2023/04/22 17:20:13;;;;;;;11.82;5.65;;;;;;;14.60;78.50;99435.22;10114136;29;20048;-78
2023/04/22 17:25:17;;;;;;;9.43;6.45;;;;;;;14.62;80.27;99437.75;10116415;29;20052;-78
2023/04/22 17:30:20;;;;;;;9.77;5.57;;;;;;;14.71;81.46;99427.75;10114396;29;20060;-78
2023/04/22 17:35:23;;;;;;;7.93;5.60;;;;;;;14.67;78.07;99429.09;10113466;29;21276;-77
2023/04/22 17:40:27;;;;;;;9.82;5.95;;;;;;;14.92;77.52;99424.44;10103294;29;20053;-77
2023/04/22 17:45:30;;;;;;;7.85;6.18;;;;;;;14.91;76.86;99422.75;10102871;29;20057;-76
2023/04/22 17:50:33;;;;;;;9.45;6.82;;;;;;;15.57;81.24;99413.25;10101230;29;20138;-77
2023/04/22 17:55:37;;;;;;;8.95;6.68;;;;;;;15.76;81.99;99411.09;10111989;29;20056;-77
2023/04/22 18:00:40;;;;;;;8.00;7.00;;;;;;;15.54;78.31;99424.44;10104977;29;20423;-77
2023/04/22 18:05:43;;;;;;;9.88;6.25;;;;;;;15.40;75.11;99423.38;10114718;29;20052;-77
2023/04/22 18:10:47;;;;;;;7.07;5.53;;;;;;;15.44;76.35;99423.84;10113864;29;20059;-78
2023/04/22 18:15:50;;;;;;;9.07;5.15;;;;;;;15.57;75.95;99424.09;10106848;29;20053;-77
2023/04/22 18:20:53;;;;;;;6.93;5.13;;;;;;;15.74;79.39;99430.22;10104518;29;20181;-77
2023/04/22 18:25:57;;;;;;;8.80;5.47;;;;;;;15.92;81.53;99416.38;10109640;29;20053;-77
2023/04/22 18:31:00;;;;;;;5.75;5.10;;;;;;;15.99;81.37;99422.75;10110392;29;20046;-76
2023/04/22 18:36:04;;;;;;;4.50;4.10;;;;;;;15.75;73.07;99428.38;10113258;29;20048;-75
2023/04/22 18:41:09;;;;;;;6.45;4.50;;;;;;;15.73;71.49;99430.41;10117654;29;20063;-78
2023/04/22 18:46:12;;;;;;;7.72;5.15;;;;;;;15.75;73.02;99436.50;10116246;29;20516;-78
2023/04/22 18:51:15;;;;;;;8.55;5.10;;;;;;;15.73;73.49;99441.25;10113028;29;20060;-78
2023/04/22 18:56:19;;;;;;;5.93;5.32;;;;;;;15.77;73.83;99437.13;10103316;29;20120;-78
2023/04/22 19:01:22;;;;;;;6.30;5.25;;;;;;;15.69;71.31;99447.03;10101551;29;20071;-78
2023/04/22 19:06:26;;;;;;;8.25;5.65;;;;;;;15.74;71.68;99446.47;10094071;29;20064;-78
2023/04/22 19:11:30;;;;;;;6.47;4.72;;;;;;;15.74;72.39;99451.88;10107838;29;20048;-77
2023/04/22 19:16:33;;;;;;;6.30;5.00;;;;;;;15.40;68.47;99458.53;10107897;29;20135;-77
2023/04/22 19:21:36;;;;;;;6.10;5.50;;;;;;;15.49;69.42;99462.03;10102415;29;20060;-78
2023/04/22 19:26:40;;;;;;;6.47;5.80;;;;;;;15.53;69.63;99457.13;10124497;29;20059;-77
2023/04/22 19:31:43;;;;;;;9.88;5.50;;;;;;;15.41;68.00;99456.66;10104390;29;20052;-76
2023/04/22 19:36:47;;;;;;;8.23;5.68;;;;;;;15.33;68.76;99472.91;10100997;29;20415;-77
2023/04/22 19:41:51;;;;;;;5.53;4.57;;;;;;;15.27;68.05;99471.75;10098009;29;20556;-76
2023/04/22 19:46:54;;;;;;;5.95;5.30;;;;;;;15.19;68.23;99480.78;10104995;29;20067;-77
2023/04/22 19:51:57;;;;;;;5.53;4.47;;;;;;;15.12;68.43;99470.84;10106668;29;20059;-76
2023/04/22 19:57:05;;;;;;;6.25;3.67;;;;;;;14.69;69.04;99486.53;10123659;29;20063;-77
2023/04/22 20:02:09;;;;;;;5.35;4.45;;;;;;;14.92;69.33;99490.19;10109235;29;20126;-78
2023/04/22 20:07:14;;;;;;;4.47;3.95;;;;;;;14.34;70.87;99480.47;10111153;29;20048;-77
2023/04/22 20:12:18;;;;;;;5.82;4.93;;;;;;;14.00;75.33;99503.13;10108820;29;20508;-78
2023/04/22 20:17:21;;;;;;;5.85;5.03;;;;;;;13.88;77.23;99490.97;10114887;29;20048;-76
2023/04/22 20:22:25;;;;;;;7.47;5.22;;;;;;;13.71;79.88;99495.47;10125246;29;20060;-77
2023/04/22 20:27:29;;;;;;;7.88;5.70;;;;;;;13.77;80.44;99491.25;10110590;29;20131;-76
2023/04/22 20:32:32;;;;;;;7.53;6.00;;;;;;;14.04;81.05;99495.50;10105092;29;20146;-76
2023/04/22 20:37:36;;;;;;;6.80;6.10;;;;;;;13.84;81.65;99495.00;10116823;29;20057;-78
2023/04/22 20:42:40;;;;;;;10.65;6.13;;;;;;;13.76;81.58;99495.81;10102110;29;21253;-76
2023/04/22 20:47:43;;;;;;;7.10;5.93;;;;;;;13.66;82.29;99492.47;10111269;29;20154;-77
2023/04/22 20:52:46;;;;;;;7.60;6.03;;;;;;;13.05;84.20;99507.91;10105227;29;20733;-76
2023/04/22 20:57:50;;;;;;;9.32;6.32;;;;;;;13.14;84.56;99506.94;10104425;29;21679;-76
2023/04/22 21:02:54;;;;;;;8.13;6.90;;;;;;;13.12;85.66;99502.72;10131522;29;20064;-77
2023/04/22 21:08:00;;;;;;;10.75;7.22;;;;;;;13.36;84.97;99500.09;10142186;29;20040;-77
2023/04/22 21:13:05;;;;;;;8.75;7.85;;;;;;;13.43;84.75;99487.66;10154639;29;20048;-76
2023/04/22 21:18:08;;;;;;;10.73;8.07;;;;;;;13.53;84.60;99489.41;10152164;29;20071;-78
2023/04/22 21:23:12;;;;;;;12.02;8.32;;;;;;;13.45;84.36;99501.84;10151214;29;20055;-76
2023/04/22 21:28:17;;;;;;;8.77;7.75;;;;;;;13.70;84.13;99496.50;10148055;29;20165;-78
2023/04/22 21:33:20;;;;;;;10.55;8.70;;;;;;;13.73;83.46;99500.72;10161726;29;20516;-77
2023/04/22 21:38:23;;;;;;;9.82;8.68;;;;;;;13.75;83.60;99488.75;10157287;29;20099;-76
2023/04/22 21:43:28;;;;;;;12.02;9.10;;;;;;;13.62;82.94;99496.47;10146540;29;20095;-78
2023/04/22 21:48:31;;;;;;;13.98;8.57;;;;;;;13.65;82.53;99496.16;10143273;29;20468;-77
2023/04/22 21:53:34;;;;;;;10.88;8.93;;;;;;;13.79;83.07;99498.19;10150525;29;20128;-77
2023/04/22 21:58:38;;;;;;;11.80;8.98;;;;;;;13.79;82.19;99489.25;10150717;29;20037;-77
2023/04/22 22:03:41;;;;;;;11.02;9.18;;;;;;;13.99;83.97;99490.63;10149894;29;20052;-78
2023/04/22 22:08:44;;;;;;;11.65;8.55;;;;;;;13.96;83.22;99484.72;10154376;29;20040;-76
2023/04/22 22:13:49;;;;;;;10.30;7.55;;;;;;;13.80;82.38;99483.69;10146753;29;20052;-77
2023/04/22 22:18:52;;;;;;;8.20;7.03;;;;;;;13.87;83.11;99475.75;10143509;29;20124;-77
2023/04/22 22:23:55;;;;;;;9.93;7.88;;;;;;;13.79;82.62;99479.28;10149009;29;20616;-78
2023/04/22 22:28:59;;;;;;;7.95;7.15;;;;;;;13.83;83.12;99472.56;10152079;29;20427;-77
2023/04/22 22:34:01;;;;;;;8.68;7.78;;;;;;;13.77;82.93;99486.75;10153654;29;20040;-77
2023/04/22 22:39:05;;;;;;;10.05;7.13;;;;;;;13.78;82.92;99480.31;10154118;29;20045;-77
2023/04/22 22:44:09;;;;;;;8.27;6.13;;;;;;;13.71;82.00;99479.28;10150141;29;20518;-78
2023/04/22 22:49:11;;;;;;;8.60;5.72;;;;;;;13.61;81.09;99482.16;10145861;29;20102;-77
2023/04/22 22:54:14;;;;;;;6.43;4.97;;;;;;;13.83;80.43;99485.22;10150436;29;20063;-77
2023/04/22 22:59:19;;;;;;;6.75;5.88;;;;;;;13.65;80.19;99505.09;10147610;29;20048;-77
2023/04/22 23:04:21;;;;;;;8.20;6.10;;;;;;;12.23;87.97;99522.66;10148623;29;20127;-78
2023/04/22 23:09:25;;;;;;;10.00;7.00;;;;;;;12.30;88.71;99513.00;10152665;29;20040;-79
2023/04/22 23:14:29;;;;;;;12.55;9.57;;;;;;;12.02;89.45;99520.31;10148776;29;20037;-78
2023/04/22 23:19:33;;;;;;;13.70;12.15;;;;;;;11.94;88.95;99516.53;10158531;29;20496;-78
2023/04/22 23:24:36;;;;;;;20.45;14.43;;;;;;;11.83;89.64;99524.84;10157298;29;20056;-79
2023/04/22 23:29:41;;;;;;;24.05;16.27;;;;;;;12.04;87.56;99529.94;10164371;29;20041;-78
2023/04/22 23:34:45;;;;;;;24.88;17.30;;;;;;;11.63;87.36;99521.47;10165774;29;20398;-79